Time;durP1;ratioP1;P1;durP2;ratioP2;P2;SDS_P1;SDS_P2;PMS_P1;PMS_P2;Temp;Humidity;BMP_temperature;BMP_pressure;BME280_temperature;BME280_humidity;BME280_pressure;Samples;Min_cycle;Max_cycle;Signal;HPM_P1;HPM_P2
2023/10/16 03:00:56;;;;;;;1.02;0.90;;;20.00;42.90;;;;;;5620470;23;46285;-81
2023/10/16 03:03:24;;;;;;;1.70;0.90;;;20.00;43.00;;;;;;4864221;28;45478;-81
2023/10/16 03:05:51;;;;;;;1.10;0.80;;;20.00;42.90;;;;;;4867316;28;46438;-81
2023/10/16 03:08:22;;;;;;;1.20;0.90;;;20.00;42.90;;;;;;4872111;28;45273;-82
2023/10/16 03:10:48;;;;;;;1.13;0.90;;;20.00;42.90;;;;;;4871508;28;45035;-81
2023/10/16 03:13:15;;;;;;;1.60;1.00;;;20.00;42.90;;;;;;4870117;28;45581;-82
2023/10/16 03:15:45;;;;;;;1.67;1.00;;;20.00;42.90;;;;;;4870288;28;45344;-81
2023/10/16 03:18:22;;;;;;;1.27;1.00;;;20.00;42.80;;;;;;4882570;28;45252;-83
2023/10/16 03:20:48;;;;;;;1.10;0.90;;;20.00;42.80;;;;;;4879654;28;45384;-81
2023/10/16 03:23:16;;;;;;;2.00;0.90;;;20.00;42.80;;;;;;4865237;28;44739;-81
2023/10/16 03:28:14;;;;;;;1.38;0.85;;;20.00;42.80;;;;;;4917545;28;45481;-81
2023/10/16 03:30:42;;;;;;;1.90;1.10;;;20.00;42.80;;;;;;4879644;28;45502;-81
2023/10/16 03:33:08;;;;;;;1.60;0.98;;;19.90;42.70;;;;;;4869093;28;45277;-81
2023/10/16 03:35:34;;;;;;;1.05;0.90;;;20.00;42.70;;;;;;4868121;28;45317;-81
2023/10/16 03:38:08;;;;;;;1.10;0.90;;;19.90;42.70;;;;;;4904411;28;44938;-81
2023/10/16 03:40:34;;;;;;;1.27;1.00;;;19.90;42.70;;;;;;4866666;28;44914;-81
2023/10/16 03:43:00;;;;;;;1.27;0.82;;;19.90;42.70;;;;;;4884095;28;45245;-81
2023/10/16 03:45:26;;;;;;;1.55;0.90;;;20.00;42.60;;;;;;4879385;28;47091;-82
2023/10/16 03:47:57;;;;;;;1.70;0.90;;;20.00;42.60;;;;;;4873548;28;45537;-81
2023/10/16 03:50:26;;;;;;;1.92;0.85;;;19.90;42.60;;;;;;4867339;28;45292;-81
2023/10/16 03:52:55;;;;;;;1.20;0.90;;;19.90;42.60;;;;;;4853871;28;44925;-82
2023/10/16 03:55:28;;;;;;;1.10;0.90;;;19.90;42.60;;;;;;4915552;28;45519;-81
2023/10/16 03:57:57;;;;;;;2.25;1.15;;;19.90;42.50;;;;;;4873615;28;45711;-81
2023/10/16 04:03:09;;;;;;;1.48;1.05;;;19.90;42.60;;;;;;4877130;28;45005;-82
2023/10/16 04:05:47;;;;;;;1.50;0.90;;;19.90;42.50;;;;;;4881197;28;45199;-81
2023/10/16 04:08:18;;;;;;;1.27;1.00;;;19.90;42.60;;;;;;4857133;28;45911;-81
2023/10/16 04:10:47;;;;;;;1.80;1.07;;;19.90;42.50;;;;;;4876947;28;45397;-81
2023/10/16 04:13:18;;;;;;;1.00;0.80;;;19.90;42.50;;;;;;4895308;28;45182;-81
2023/10/16 04:21:37;;;;;;;2.53;0.93;;;19.90;42.50;;;;;;4876803;28;45032;-81
2023/10/16 04:23:57;;;;;;;1.77;0.93;;;19.90;42.50;;;;;;4870015;28;45347;-81
2023/10/16 04:31:55;;;;;;;2.40;1.15;;;19.90;42.50;;;;;;4889695;28;45646;-80
2023/10/16 04:47:47;;;;;;;1.77;1.08;;;19.80;42.30;;;;;;4861789;28;46785;-82
2023/10/16 04:50:27;;;;;;;2.03;1.30;;;19.80;42.30;;;;;;4859728;28;45298;-81
2023/10/16 05:00:57;;;;;;;1.70;1.17;;;19.80;42.20;;;;;;4876172;28;45920;-81
2023/10/16 05:06:49;;;;;;;1.77;1.07;;;19.80;42.20;;;;;;4896068;28;45273;-81
2023/10/16 05:17:59;;;;;;;2.08;1.25;;;19.80;42.20;;;;;;4863785;28;46126;-81
2023/10/16 06:14:51;;;;;;;2.10;1.52;;;19.70;41.80;;;;;;4894386;28;46899;-80
2023/10/16 06:17:16;;;;;;;1.63;1.40;;;19.60;41.70;;;;;;4865803;28;45028;-81
2023/10/16 06:19:45;;;;;;;1.43;1.10;;;19.60;41.70;;;;;;4870831;28;45337;-80
2023/10/16 06:22:11;;;;;;;1.98;1.63;;;19.60;41.60;;;;;;4852590;28;44893;-81
2023/10/16 06:24:36;;;;;;;2.07;1.57;;;19.60;41.70;;;;;;4862307;28;47071;-80
2023/10/16 06:27:10;;;;;;;2.23;1.47;;;19.60;41.70;;;;;;4864264;28;45254;-80
2023/10/16 06:29:41;;;;;;;2.08;1.40;;;19.60;41.60;;;;;;4877493;28;45525;-80
2023/10/16 06:32:18;;;;;;;1.88;1.48;;;19.60;41.60;;;;;;4858714;28;45362;-80
2023/10/16 06:34:57;;;;;;;1.48;1.20;;;19.60;41.60;;;;;;4872583;28;46379;-80
2023/10/16 06:37:24;;;;;;;2.00;1.40;;;19.60;41.60;;;;;;4884300;28;45308;-80
2023/10/16 06:39:54;;;;;;;1.93;1.37;;;19.60;41.50;;;;;;4905413;28;45530;-80
2023/10/16 06:42:20;;;;;;;2.00;1.40;;;19.60;41.60;;;;;;4869881;28;45333;-80
2023/10/16 06:44:55;;;;;;;1.52;1.30;;;19.60;41.60;;;;;;4887598;28;45188;-80
2023/10/16 06:47:47;;;;;;;1.55;1.35;;;19.60;41.50;;;;;;4879543;28;45247;-80
2023/10/16 06:52:51;;;;;;;2.45;1.70;;;19.60;41.60;;;;;;4888766;28;45483;-80
2023/10/16 06:55:17;;;;;;;1.90;1.30;;;19.60;41.60;;;;;;4923936;28;45524;-81
2023/10/16 06:57:43;;;;;;;2.17;1.42;;;19.60;41.50;;;;;;4876178;28;45584;-83
2023/10/16 07:00:22;;;;;;;2.88;1.45;;;19.60;41.50;;;;;;4856269;28;45265;-80
2023/10/16 07:02:54;;;;;;;2.50;1.48;;;19.60;41.50;;;;;;4884026;28;45502;-81
2023/10/16 07:05:23;;;;;;;1.73;1.40;;;19.60;41.50;;;;;;4868855;28;46381;-80
2023/10/16 07:07:49;;;;;;;1.90;1.60;;;19.50;41.40;;;;;;4889431;28;45026;-81
2023/10/16 07:10:15;;;;;;;1.63;1.30;;;19.60;41.50;;;;;;4871454;28;45273;-81
2023/10/16 07:12:58;;;;;;;1.50;1.40;;;19.60;41.40;;;;;;4873994;28;45534;-81
2023/10/16 07:15:25;;;;;;;2.58;1.70;;;19.50;41.40;;;;;;4900111;28;46609;-80
2023/10/16 07:17:51;;;;;;;2.47;1.42;;;19.50;41.40;;;;;;4877021;28;44970;-80
2023/10/16 07:23:12;;;;;;;1.67;1.30;;;19.60;41.50;;;;;;4850661;28;45032;-82
2023/10/16 07:25:47;;;;;;;2.08;1.40;;;19.50;41.40;;;;;;4880065;28;46546;-81
2023/10/16 07:28:15;;;;;;;1.90;1.50;;;19.50;41.40;;;;;;4889909;28;45049;-80
2023/10/16 07:30:42;;;;;;;1.50;1.20;;;19.50;41.40;;;;;;4886123;28;45502;-80
2023/10/16 07:33:15;;;;;;;2.17;1.52;;;19.50;41.50;;;;;;4891027;28;45500;-81
2023/10/16 07:35:45;;;;;;;2.22;1.60;;;19.50;41.40;;;;;;4877832;28;45209;-80
2023/10/16 07:38:21;;;;;;;2.33;1.58;;;19.60;41.50;;;;;;4857482;28;44962;-81
2023/10/16 07:40:53;;;;;;;1.98;1.73;;;19.50;41.50;;;;;;4861440;28;45383;-81
2023/10/16 07:43:26;;;;;;;2.55;1.70;;;19.60;41.50;;;;;;4906358;28;45366;-80
2023/10/16 07:46:29;;;;;;;2.22;1.40;;;19.60;41.50;;;;;;4878600;28;46126;-80
2023/10/16 07:48:56;;;;;;;1.55;1.35;;;19.50;41.50;;;;;;4896830;28;45451;-80
2023/10/16 07:51:26;;;;;;;2.10;1.40;;;19.50;41.50;;;;;;4869073;28;45703;-80
2023/10/16 07:53:52;;;;;;;2.03;1.70;;;19.50;41.50;;;;;;4894203;28;45420;-81
2023/10/16 07:56:19;;;;;;;2.40;1.70;;;19.50;41.50;;;;;;4870688;28;46656;-80
2023/10/16 07:58:48;;;;;;;2.05;1.48;;;19.50;41.50;;;;;;4891401;28;44993;-81
2023/10/16 08:03:41;;;;;;;1.83;1.50;;;19.50;41.50;;;;;;4855548;28;45629;-81
2023/10/16 08:06:12;;;;;;;2.38;1.75;;;19.50;41.60;;;;;;4883522;28;45431;-81
2023/10/16 08:08:42;;;;;;;2.40;1.77;;;19.50;41.50;;;;;;4872504;28;44799;-81
2023/10/16 08:11:13;;;;;;;2.13;1.67;;;19.50;41.60;;;;;;4881917;28;45712;-81
2023/10/16 08:13:58;;;;;;;2.67;1.90;;;19.50;41.60;;;;;;4872066;28;45223;-81
2023/10/16 08:16:26;;;;;;;2.65;1.77;;;19.50;41.50;;;;;;4857761;28;45592;-81
2023/10/16 08:18:52;;;;;;;4.05;1.95;;;19.50;41.60;;;;;;4863846;28;45597;-80
2023/10/16 08:21:25;;;;;;;2.30;1.90;;;19.50;41.60;;;;;;4867704;28;45776;-80
2023/10/16 08:23:55;;;;;;;2.90;1.80;;;19.50;41.60;;;;;;4856524;28;45478;-80
2023/10/16 08:26:30;;;;;;;2.85;2.20;;;19.40;41.60;;;;;;4874045;28;46196;-81
2023/10/16 08:29:12;;;;;;;2.30;2.03;;;19.40;41.50;;;;;;4872295;28;45493;-81
2023/10/16 08:31:45;;;;;;;3.70;2.43;;;19.40;41.60;;;;;;4845391;28;45585;-80
2023/10/16 08:34:19;;;;;;;3.45;2.40;;;19.50;41.60;;;;;;4872378;28;44840;-81
2023/10/16 08:36:50;;;;;;;3.47;2.45;;;19.40;41.60;;;;;;4865070;28;45468;-81
2023/10/16 08:39:21;;;;;;;4.17;2.73;;;19.40;42.20;;;;;;4858960;28;45309;-81
2023/10/16 08:41:53;;;;;;;3.40;2.40;;;19.40;41.60;;;;;;4853372;28;45283;-80
2023/10/16 08:44:19;;;;;;;3.60;2.50;;;19.40;41.60;;;;;;4861203;28;45503;-80
2023/10/16 08:46:52;;;;;;;4.27;2.67;;;19.40;41.60;;;;;;4839684;28;45469;-80
2023/10/16 08:49:22;;;;;;;4.15;2.80;;;19.40;41.60;;;;;;4851758;28;45008;-80
2023/10/16 08:51:49;;;;;;;3.80;3.00;;;19.40;41.60;;;;;;4848937;28;45524;-80
2023/10/16 08:57:01;;;;;;;3.60;3.10;;;19.40;41.60;;;;;;4897741;28;46085;-81
2023/10/16 08:59:26;;;;;;;3.88;2.90;;;19.40;41.60;;;;;;4886175;28;45432;-81
2023/10/16 09:01:53;;;;;;;4.25;3.00;;;19.40;41.60;;;;;;4868641;28;45264;-80
2023/10/16 09:04:20;;;;;;;3.70;2.80;;;19.50;41.70;;;;;;4889054;28;45383;-81
2023/10/16 09:06:46;;;;;;;3.97;3.00;;;19.40;41.70;;;;;;4873655;28;46070;-81
2023/10/16 09:09:13;;;;;;;3.65;2.88;;;19.40;41.70;;;;;;4869364;28;45256;-80
2023/10/16 09:11:42;;;;;;;4.57;3.10;;;19.40;41.70;;;;;;4860963;28;45727;-81
2023/10/16 09:14:13;;;;;;;3.60;2.65;;;19.40;41.70;;;;;;4870210;28;45014;-81
2023/10/16 09:16:43;;;;;;;4.82;3.13;;;19.40;41.70;;;;;;4894426;28;45164;-81
2023/10/16 09:19:12;;;;;;;4.32;3.25;;;19.40;41.70;;;;;;4886383;28;45789;-81
2023/10/16 09:21:43;;;;;;;3.53;2.80;;;19.40;41.70;;;;;;4861178;28;46737;-81
2023/10/16 09:24:08;;;;;;;3.72;2.83;;;19.40;41.70;;;;;;4889869;28;45445;-80
2023/10/16 09:26:44;;;;;;;3.80;3.10;;;19.40;41.70;;;;;;4866654;28;46783;-80
2023/10/16 09:29:14;;;;;;;3.37;2.87;;;19.40;41.70;;;;;;4882882;28;44804;-80
2023/10/16 09:31:46;;;;;;;4.32;2.85;;;19.40;41.80;;;;;;4862506;28;45353;-80
2023/10/16 09:34:17;;;;;;;4.23;2.93;;;19.40;41.80;;;;;;4867105;28;46220;-80
2023/10/16 09:37:13;;;;;;;4.88;2.90;;;19.40;41.80;;;;;;4881249;28;46329;-81
2023/10/16 09:39:35;;;;;;;3.28;2.75;;;19.40;41.80;;;;;;4889284;28;45224;-83
2023/10/16 09:42:06;;;;;;;4.23;2.70;;;19.40;41.80;;;;;;4885155;28;45014;-82
2023/10/16 09:44:38;;;;;;;3.57;2.83;;;19.40;41.90;;;;;;4871642;28;45333;-81
2023/10/16 09:47:25;;;;;;;3.85;2.70;;;19.40;41.90;;;;;;4857427;28;46210;-80
2023/10/16 09:49:55;;;;;;;3.35;2.30;;;19.40;41.90;;;;;;4880568;28;44949;-82
2023/10/16 09:52:22;;;;;;;3.63;2.72;;;19.40;41.90;;;;;;4883850;28;45561;-81
2023/10/16 09:54:48;;;;;;;3.33;2.53;;;19.40;41.90;;;;;;4889565;28;45265;-81
2023/10/16 09:57:19;;;;;;;3.83;2.90;;;19.40;41.90;;;;;;4876684;28;47265;-80
2023/10/16 09:59:44;;;;;;;4.30;3.00;;;19.40;42.10;;;;;;4874093;28;45458;-82
2023/10/16 10:02:18;;;;;;;2.92;2.60;;;19.40;42.00;;;;;;4861355;28;45714;-80
2023/10/16 10:04:59;;;;;;;3.05;2.55;;;19.40;41.90;;;;;;4859359;28;45462;-81
2023/10/16 10:07:46;;;;;;;2.90;2.53;;;19.40;42.00;;;;;;4879589;28;47295;-81
2023/10/16 10:12:57;;;;;;;4.00;2.78;;;19.40;42.00;;;;;;4902683;28;44928;-81
2023/10/16 10:15:27;;;;;;;3.30;2.45;;;19.40;42.00;;;;;;4880018;28;45604;-81
2023/10/16 10:17:55;;;;;;;3.33;2.53;;;19.40;42.10;;;;;;4883878;28;48405;-81
2023/10/16 10:20:32;;;;;;;3.30;2.40;;;19.40;42.70;;;;;;4893249;28;45306;-81
2023/10/16 10:23:20;;;;;;;3.63;2.50;;;19.40;42.10;;;;;;4882693;28;45233;-81
2023/10/16 10:25:46;;;;;;;4.03;2.47;;;19.40;42.00;;;;;;4901152;28;45227;-81
2023/10/16 10:28:17;;;;;;;3.25;2.58;;;19.40;42.10;;;;;;4890095;28;46739;-81
2023/10/16 10:30:44;;;;;;;4.00;2.30;;;19.40;42.10;;;;;;4869609;28;46067;-81
2023/10/16 10:33:13;;;;;;;3.97;2.30;;;19.40;42.10;;;;;;4884535;28;44755;-81
2023/10/16 10:35:38;;;;;;;3.10;2.58;;;19.40;42.20;;;;;;4867072;28;46280;-80
2023/10/16 10:38:29;;;;;;;2.92;2.00;;;19.40;42.10;;;;;;4875314;28;46595;-81
2023/10/16 10:41:04;;;;;;;3.20;2.20;;;19.40;42.20;;;;;;4881045;28;45098;-80
2023/10/16 10:43:48;;;;;;;3.30;2.20;;;19.40;42.10;;;;;;4914616;28;45201;-80
2023/10/16 10:46:20;;;;;;;2.25;1.98;;;19.40;42.20;;;;;;4873338;28;45306;-82
2023/10/16 10:48:46;;;;;;;2.65;2.20;;;19.40;42.20;;;;;;4894805;28;45380;-80
2023/10/16 10:51:15;;;;;;;3.28;2.22;;;19.40;42.20;;;;;;4863472;28;45268;-80
2023/10/16 10:53:58;;;;;;;2.45;1.98;;;19.40;42.20;;;;;;4899128;28;45345;-81
2023/10/16 10:56:50;;;;;;;2.30;2.00;;;19.40;42.20;;;;;;4884296;28;44895;-80
2023/10/16 10:59:40;;;;;;;2.63;1.95;;;19.40;42.20;;;;;;4891267;28;47161;-80
2023/10/16 11:04:45;;;;;;;2.42;1.90;;;19.40;42.30;;;;;;4873961;28;45463;-79
2023/10/16 11:07:26;;;;;;;2.60;1.92;;;19.40;42.30;;;;;;4872358;28;45613;-81
2023/10/16 11:09:57;;;;;;;3.63;1.90;;;19.50;42.40;;;;;;4878865;28;47347;-81
2023/10/16 11:12:25;;;;;;;1.95;1.70;;;19.40;42.30;;;;;;4904841;28;44824;-81
2023/10/16 11:14:53;;;;;;;2.63;1.73;;;19.40;42.30;;;;;;4859585;28;46859;-80
2023/10/16 11:17:35;;;;;;;2.80;1.65;;;19.40;42.30;;;;;;4869780;28;45435;-80
2023/10/16 11:20:12;;;;;;;2.70;1.88;;;19.50;42.40;;;;;;4878315;28;46100;-81
2023/10/16 11:22:43;;;;;;;2.20;1.65;;;19.40;42.30;;;;;;4889149;28;45246;-81
2023/10/16 11:25:09;;;;;;;2.30;1.60;;;19.50;42.40;;;;;;4883231;28;45246;-80
2023/10/16 11:27:34;;;;;;;2.97;1.77;;;19.50;42.40;;;;;;4881302;28;45717;-80
2023/10/16 11:30:10;;;;;;;2.13;1.52;;;19.50;42.40;;;;;;4874910;28;46161;-80
2023/10/16 11:32:41;;;;;;;3.67;1.63;;;19.50;42.40;;;;;;4864224;28;45277;-81
2023/10/16 11:35:15;;;;;;;2.30;1.53;;;19.50;42.40;;;;;;4909767;28;45464;-80
2023/10/16 11:37:55;;;;;;;2.87;1.30;;;19.40;42.30;;;;;;4897275;28;45008;-81
2023/10/16 11:40:31;;;;;;;1.92;1.35;;;19.50;42.40;;;;;;4880832;28;46163;-81
2023/10/16 11:43:00;;;;;;;2.70;1.50;;;19.50;42.50;;;;;;4874736;28;45302;-80
2023/10/16 11:45:30;;;;;;;2.20;1.30;;;19.50;42.40;;;;;;4858379;28;45410;-81
2023/10/16 11:50:41;;;;;;;2.78;1.60;;;19.50;42.40;;;;;;4894039;28;45340;-79
2023/10/16 11:53:07;;;;;;;1.92;1.40;;;19.50;42.40;;;;;;4905530;28;45254;-85
2023/10/16 11:55:36;;;;;;;2.88;1.52;;;19.50;42.50;;;;;;4867451;28;45764;-81
2023/10/16 11:58:08;;;;;;;2.65;1.60;;;19.50;42.50;;;;;;4889249;28;44912;-81
2023/10/16 12:00:35;;;;;;;2.45;1.42;;;19.50;42.50;;;;;;4866665;28;46706;-81
2023/10/16 12:03:07;;;;;;;1.92;1.50;;;19.50;42.50;;;;;;4888131;28;45064;-81
2023/10/16 12:05:55;;;;;;;2.20;1.60;;;19.50;42.50;;;;;;4916578;28;44887;-81
2023/10/16 12:08:21;;;;;;;3.00;1.40;;;19.50;42.50;;;;;;4885468;28;45479;-80
2023/10/16 12:10:50;;;;;;;2.05;1.40;;;19.50;42.50;;;;;;4884225;28;45834;-81
2023/10/16 12:13:16;;;;;;;2.23;1.70;;;19.50;42.50;;;;;;4874018;28;45594;-81
2023/10/16 12:15:43;;;;;;;1.80;1.50;;;19.50;42.50;;;;;;4866183;28;45396;-80
2023/10/16 12:18:12;;;;;;;1.55;1.40;;;19.50;42.50;;;;;;4893196;28;45361;-81
2023/10/16 12:20:38;;;;;;;1.65;1.23;;;19.50;42.50;;;;;;4875503;28;46986;-81
2023/10/16 12:23:04;;;;;;;2.00;1.37;;;19.50;42.50;;;;;;4872108;28;45313;-81
2023/10/16 12:25:29;;;;;;;2.42;1.30;;;19.50;42.50;;;;;;4887890;28;45260;-81
2023/10/16 12:27:55;;;;;;;1.67;1.40;;;19.50;42.50;;;;;;4876885;28;44748;-80
2023/10/16 12:30:21;;;;;;;1.63;1.30;;;19.50;42.50;;;;;;4860232;28;47193;-80
2023/10/16 12:32:47;;;;;;;2.27;1.50;;;19.50;42.50;;;;;;4872198;28;45498;-80
2023/10/16 12:35:17;;;;;;;2.17;1.30;;;19.50;42.50;;;;;;4884108;28;45437;-79
2023/10/16 12:37:44;;;;;;;1.88;1.35;;;19.50;42.50;;;;;;4874405;28;45299;-80
2023/10/16 12:40:27;;;;;;;1.88;1.20;;;19.50;42.50;;;;;;4900129;28;46527;-81
2023/10/16 12:42:58;;;;;;;1.73;1.30;;;19.50;42.50;;;;;;4918700;28;44818;-81
2023/10/16 12:45:24;;;;;;;2.17;1.37;;;19.50;42.50;;;;;;4882706;28;45200;-81
2023/10/16 12:47:51;;;;;;;1.63;1.27;;;19.50;42.50;;;;;;4878984;28;45113;-80
2023/10/16 12:50:18;;;;;;;2.17;1.30;;;19.50;42.50;;;;;;4866310;28;45899;-80
2023/10/16 12:52:44;;;;;;;1.85;1.15;;;19.50;42.50;;;;;;4867964;28;45299;-80
2023/10/16 12:55:11;;;;;;;1.40;1.20;;;19.50;42.50;;;;;;4903614;28;45259;-80
2023/10/16 12:57:39;;;;;;;1.70;1.13;;;19.50;42.50;;;;;;4892795;28;45771;-81
2023/10/16 13:00:15;;;;;;;1.70;1.20;;;19.50;42.50;;;;;;4888203;28;46071;-80
2023/10/16 13:02:43;;;;;;;2.20;1.10;;;19.50;42.50;;;;;;4873330;28;45236;-81
2023/10/16 13:05:15;;;;;;;1.35;1.05;;;19.50;42.50;;;;;;4870764;28;45492;-82
2023/10/16 13:07:42;;;;;;;1.58;1.10;;;19.50;42.50;;;;;;4879403;28;45477;-81
2023/10/16 13:10:09;;;;;;;1.60;1.00;;;19.50;42.50;;;;;;4864966;28;47039;-83
2023/10/16 13:12:39;;;;;;;1.65;1.20;;;19.50;42.50;;;;;;4874915;28;45250;-81
2023/10/16 13:15:08;;;;;;;1.77;1.10;;;19.50;42.50;;;;;;4896300;28;45658;-80
2023/10/16 13:17:35;;;;;;;1.85;1.10;;;19.50;42.50;;;;;;4879746;28;45393;-82
2023/10/16 13:20:01;;;;;;;1.90;0.90;;;19.50;42.50;;;;;;4904178;28;47091;-81
2023/10/16 13:22:30;;;;;;;1.52;1.10;;;19.60;42.50;;;;;;4898063;28;45182;-81
2023/10/16 13:24:56;;;;;;;1.42;1.02;;;19.60;42.50;;;;;;4888915;28;45557;-82
2023/10/16 13:27:22;;;;;;;1.55;0.80;;;19.60;42.50;;;;;;4886051;28;45785;-83
2023/10/16 13:29:51;;;;;;;1.13;0.90;;;19.60;43.10;;;;;;4890911;28;46439;-81
2023/10/16 13:32:17;;;;;;;1.10;1.00;;;19.60;42.50;;;;;;4872005;28;44736;-82
2023/10/16 13:34:43;;;;;;;1.58;0.85;;;19.60;42.40;;;;;;4876085;28;44563;-81
2023/10/16 13:37:09;;;;;;;1.38;0.88;;;19.60;42.40;;;;;;4903096;28;45375;-81
2023/10/16 13:39:41;;;;;;;0.83;0.73;;;19.60;42.50;;;;;;4883577;28;47270;-81
2023/10/16 13:42:09;;;;;;;2.35;0.93;;;19.50;42.40;;;;;;4856516;28;45216;-82
2023/10/16 13:44:36;;;;;;;1.07;0.80;;;19.60;42.40;;;;;;4888226;28;45412;-81
2023/10/16 13:47:05;;;;;;;1.73;0.83;;;19.60;42.40;;;;;;4864479;28;45343;-81
2023/10/16 13:49:32;;;;;;;0.90;0.73;;;19.60;42.40;;;;;;4880376;28;45529;-81
2023/10/16 13:51:58;;;;;;;1.90;1.00;;;19.60;42.40;;;;;;4877716;28;45224;-81
2023/10/16 13:54:24;;;;;;;2.05;0.90;;;19.60;42.40;;;;;;4875973;28;45652;-81
2023/10/16 13:56:50;;;;;;;2.10;0.73;;;19.60;42.40;;;;;;4870204;28;45450;-81
2023/10/16 13:59:18;;;;;;;1.40;0.90;;;19.60;42.40;;;;;;4884653;28;47021;-82
2023/10/16 14:01:43;;;;;;;1.52;0.80;;;19.60;42.40;;;;;;4879627;28;45757;-82
2023/10/16 14:04:16;;;;;;;1.00;0.70;;;19.60;42.40;;;;;;4859561;28;45519;-81
2023/10/16 14:06:44;;;;;;;3.15;1.10;;;19.60;42.40;;;;;;4889263;28;45210;-82
2023/10/16 14:09:20;;;;;;;1.85;0.73;;;19.60;42.40;;;;;;4875107;28;46236;-81
2023/10/16 14:11:49;;;;;;;1.30;0.70;;;19.60;42.30;;;;;;4897367;28;45460;-82
2023/10/16 14:14:21;;;;;;;1.20;0.80;;;19.60;42.40;;;;;;4886329;28;45565;-81
2023/10/16 14:16:53;;;;;;;1.00;0.70;;;19.60;42.30;;;;;;4849432;28;45319;-82
2023/10/16 14:19:23;;;;;;;1.23;0.77;;;19.60;42.30;;;;;;4912255;28;45153;-81
2023/10/16 14:21:51;;;;;;;1.70;0.70;;;19.60;42.40;;;;;;4903700;28;45754;-81
2023/10/16 14:24:24;;;;;;;1.30;0.75;;;19.60;42.30;;;;;;4887712;28;44709;-81
2023/10/16 14:26:51;;;;;;;1.08;0.80;;;19.60;42.30;;;;;;4865384;28;45505;-81
2023/10/16 14:29:19;;;;;;;0.93;0.70;;;19.60;42.40;;;;;;4876805;28;45092;-81
2023/10/16 14:31:48;;;;;;;1.70;0.80;;;19.60;42.30;;;;;;4881775;28;45145;-81
2023/10/16 14:34:19;;;;;;;1.20;0.60;;;19.60;42.90;;;;;;4870846;28;44753;-81
2023/10/16 14:36:46;;;;;;;1.08;0.73;;;19.60;42.30;;;;;;4876905;28;45524;-82
2023/10/16 14:39:13;;;;;;;1.13;0.70;;;19.60;42.30;;;;;;4885182;28;47344;-81
2023/10/16 14:41:41;;;;;;;1.33;0.60;;;19.60;42.30;;;;;;4878820;28;45319;-81
2023/10/16 14:44:09;;;;;;;1.60;0.70;;;19.60;42.30;;;;;;4899151;28;45246;-82
2023/10/16 14:46:38;;;;;;;1.27;0.70;;;19.60;42.30;;;;;;4896910;28;45066;-82
2023/10/16 14:49:10;;;;;;;1.63;0.73;;;19.60;42.30;;;;;;4894805;28;46243;-82
2023/10/16 14:51:39;;;;;;;1.10;0.50;;;19.60;42.30;;;;;;4882547;28;45517;-81
2023/10/16 14:54:10;;;;;;;0.80;0.60;;;19.70;42.30;;;;;;4886601;28;45190;-81
2023/10/16 14:56:37;;;;;;;1.13;0.60;;;19.60;42.20;;;;;;4920386;28;44852;-82
2023/10/16 14:59:08;;;;;;;2.08;1.00;;;19.60;42.20;;;;;;4897772;28;46046;-82
2023/10/16 15:01:34;;;;;;;1.35;0.70;;;19.60;42.20;;;;;;4877940;28;45739;-82
2023/10/16 15:04:00;;;;;;;1.10;0.75;;;19.60;42.20;;;;;;4890196;28;44693;-81
2023/10/16 15:06:25;;;;;;;1.27;0.70;;;19.60;42.20;;;;;;4886424;28;45310;-82
2023/10/16 15:08:53;;;;;;;1.40;0.70;;;19.60;42.20;;;;;;4879796;28;46384;-82
2023/10/16 15:11:20;;;;;;;0.82;0.55;;;19.60;42.20;;;;;;4870256;28;44808;-83
2023/10/16 15:13:46;;;;;;;0.70;0.50;;;19.70;42.20;;;;;;4900916;28;45012;-82
2023/10/16 15:16:12;;;;;;;1.15;0.70;;;19.60;42.20;;;;;;4842687;28;45287;-82
2023/10/16 15:18:39;;;;;;;1.38;0.70;;;19.60;42.20;;;;;;4873849;28;46564;-83
2023/10/16 15:21:08;;;;;;;1.75;0.73;;;19.60;42.20;;;;;;4913168;28;44716;-82
2023/10/16 15:23:34;;;;;;;1.23;0.70;;;19.60;42.10;;;;;;4877015;28;44785;-83
2023/10/16 15:26:01;;;;;;;1.13;0.77;;;19.60;42.10;;;;;;4890914;28;45840;-82
2023/10/16 15:28:27;;;;;;;1.30;0.60;;;19.60;42.10;;;;;;4898703;28;45551;-83
2023/10/16 15:30:53;;;;;;;1.33;0.80;;;19.60;42.10;;;;;;4841113;28;45669;-82
2023/10/16 15:33:25;;;;;;;0.90;0.60;;;19.60;42.10;;;;;;4884891;28;45570;-82
2023/10/16 15:35:54;;;;;;;1.00;0.63;;;19.60;42.10;;;;;;4877091;28;45464;-82
2023/10/16 15:38:23;;;;;;;1.10;0.70;;;19.60;42.20;;;;;;4874081;28;46280;-83
2023/10/16 15:40:52;;;;;;;1.00;0.70;;;19.60;42.10;;;;;;4886477;28;45298;-82
2023/10/16 15:43:22;;;;;;;1.30;0.70;;;19.60;42.10;;;;;;4872150;28;45245;-82
2023/10/16 15:45:50;;;;;;;0.70;0.55;;;19.60;42.10;;;;;;4910843;28;45763;-82
2023/10/16 15:48:16;;;;;;;1.20;0.75;;;19.60;42.10;;;;;;4893383;28;45357;-82
2023/10/16 15:50:43;;;;;;;1.60;0.70;;;19.60;42.10;;;;;;4879694;28;45244;-83
2023/10/16 15:53:09;;;;;;;1.10;0.80;;;19.60;42.10;;;;;;4889821;28;45365;-82
2023/10/16 15:55:35;;;;;;;2.05;0.70;;;19.60;42.10;;;;;;4871945;28;45430;-82
2023/10/16 15:58:02;;;;;;;1.30;0.70;;;19.60;42.10;;;;;;4873544;28;46487;-83
2023/10/16 16:00:28;;;;;;;1.83;0.77;;;19.60;42.10;;;;;;4862708;28;46417;-82
2023/10/16 16:02:55;;;;;;;1.20;0.70;;;19.60;42.70;;;;;;4874646;28;46031;-83
2023/10/16 16:05:22;;;;;;;1.38;0.63;;;19.60;42.10;;;;;;4898960;28;45602;-82
2023/10/16 16:07:50;;;;;;;0.93;0.70;;;19.60;42.10;;;;;;4872682;28;46131;-82
2023/10/16 16:10:19;;;;;;;1.23;0.70;;;19.60;42.10;;;;;;4865736;28;44696;-83
2023/10/16 16:12:45;;;;;;;1.35;0.90;;;19.60;42.10;;;;;;4882907;28;45237;-82
2023/10/16 16:15:15;;;;;;;1.60;0.73;;;19.60;42.10;;;;;;4863435;28;45333;-82
2023/10/16 16:17:43;;;;;;;1.27;0.57;;;19.60;42.10;;;;;;4901852;28;45394;-82
2023/10/16 16:20:15;;;;;;;1.20;0.70;;;19.60;42.20;;;;;;4857809;28;44904;-82
2023/10/16 16:22:43;;;;;;;0.80;0.63;;;19.60;42.10;;;;;;4870006;28;46783;-83
2023/10/16 16:25:12;;;;;;;1.23;0.80;;;19.60;42.10;;;;;;4899024;28;45333;-83
2023/10/16 16:27:38;;;;;;;1.23;0.70;;;19.60;42.10;;;;;;4885394;28;45762;-82
2023/10/16 16:30:07;;;;;;;1.87;0.80;;;19.60;42.10;;;;;;4870830;28;45204;-82
2023/10/16 16:32:34;;;;;;;2.42;0.80;;;19.70;42.20;;;;;;4879093;28;44844;-82
2023/10/16 16:35:01;;;;;;;1.63;0.70;;;19.60;42.10;;;;;;4868553;28;45088;-82
2023/10/16 16:37:27;;;;;;;1.25;0.70;;;19.60;42.10;;;;;;4877718;28;46054;-82
2023/10/16 16:39:53;;;;;;;2.17;0.93;;;19.60;42.20;;;;;;4886698;28;45373;-82
2023/10/16 16:42:19;;;;;;;1.23;0.68;;;19.60;42.20;;;;;;4901528;28;45039;-82
2023/10/16 16:44:45;;;;;;;1.02;0.75;;;19.60;42.20;;;;;;4896500;28;45104;-83
2023/10/16 16:47:11;;;;;;;1.95;0.80;;;19.60;42.20;;;;;;4851775;28;47166;-83
2023/10/16 16:49:36;;;;;;;1.52;0.82;;;19.60;42.20;;;;;;4863324;28;45274;-83
2023/10/16 16:52:04;;;;;;;1.95;0.73;;;19.60;42.20;;;;;;4842962;28;45011;-81
2023/10/16 16:54:29;;;;;;;1.58;0.77;;;19.60;42.20;;;;;;4893788;28;44848;-83
2023/10/16 16:56:57;;;;;;;1.15;0.70;;;19.60;42.20;;;;;;4907782;28;45471;-83
2023/10/16 16:59:25;;;;;;;1.38;0.85;;;19.60;42.20;;;;;;4860406;28;45091;-83
2023/10/16 17:01:53;;;;;;;1.20;0.80;;;19.60;42.20;;;;;;4876367;28;45211;-82
2023/10/16 17:04:18;;;;;;;1.00;0.70;;;19.60;42.30;;;;;;4870864;28;45165;-84
2023/10/16 17:06:44;;;;;;;2.72;0.95;;;19.60;42.20;;;;;;4861643;28;46087;-83
2023/10/16 17:09:15;;;;;;;2.00;0.90;;;19.60;42.30;;;;;;4861642;28;45435;-83
2023/10/16 17:11:45;;;;;;;1.03;0.63;;;19.60;42.20;;;;;;4842612;28;45997;-82
2023/10/16 17:14:12;;;;;;;1.52;0.70;;;19.60;42.20;;;;;;4848350;28;45670;-83
2023/10/16 17:16:38;;;;;;;1.52;0.70;;;19.60;42.20;;;;;;4840048;28;46685;-83
2023/10/16 17:19:05;;;;;;;1.80;0.90;;;19.60;42.20;;;;;;4890791;28;45273;-83
2023/10/16 17:21:32;;;;;;;0.85;0.68;;;19.60;42.20;;;;;;4866871;28;45338;-83
2023/10/16 17:24:03;;;;;;;4.53;0.90;;;19.60;42.30;;;;;;4873918;28;45552;-82
2023/10/16 17:26:30;;;;;;;1.38;0.80;;;19.60;42.20;;;;;;4868826;28;46243;-83
2023/10/16 17:28:56;;;;;;;1.20;0.63;;;19.60;42.20;;;;;;4864702;28;45254;-82
2023/10/16 17:31:26;;;;;;;0.90;0.65;;;19.60;42.30;;;;;;4867943;28;45143;-83
2023/10/16 17:33:53;;;;;;;1.13;0.80;;;19.60;42.30;;;;;;4892516;28;45225;-82
2023/10/16 17:36:19;;;;;;;1.58;0.90;;;19.60;42.20;;;;;;4856592;28;46239;-83
2023/10/16 17:38:45;;;;;;;1.50;0.90;;;19.60;42.30;;;;;;4860135;28;44902;-82
2023/10/16 17:41:11;;;;;;;1.30;0.90;;;19.60;42.30;;;;;;4859275;28;45414;-82
2023/10/16 17:43:38;;;;;;;2.08;0.90;;;19.60;42.30;;;;;;4882520;28;45460;-83
2023/10/16 17:46:04;;;;;;;1.70;0.85;;;19.60;42.30;;;;;;4851215;28;47280;-83
2023/10/16 17:48:30;;;;;;;1.20;0.85;;;19.60;42.30;;;;;;4857960;28;45602;-83
2023/10/16 17:50:56;;;;;;;1.45;0.88;;;19.60;42.30;;;;;;4870341;28;45116;-83
2023/10/16 17:53:25;;;;;;;1.27;0.80;;;19.60;42.30;;;;;;4891169;28;45277;-83
2023/10/16 17:55:50;;;;;;;2.17;1.08;;;19.60;42.40;;;;;;4856506;28;46320;-84
2023/10/16 17:58:16;;;;;;;1.10;0.93;;;19.60;42.30;;;;;;4873870;28;45527;-82
2023/10/16 18:00:42;;;;;;;1.75;1.00;;;19.60;42.30;;;;;;4852157;28;45284;-83
2023/10/16 18:03:09;;;;;;;1.65;1.20;;;19.60;42.40;;;;;;4877864;28;45470;-83